Jarreau, Louisiana
Current Conditions -  °F | °C
As of 8:35 AM on Sunday 23 Nov 2014 (Local Time) from KHZR Reporting Station
Broken Clouds Broken Clouds  
Wind Chill: 64°   Ceiling: 1300
Heat Index: 64°   Visibility: 10mi
Dew Point: 60°   Wind: 16mph
Humidity: 88%   Direction: 190°S
Pressure: 29.66"   Gusts: 22mph
Location:  30.63°N, 91.45°W
Report Text: KHZR 231435Z AUTO 19014G19KT 10SM BKN013 BKN020 18/16 A2966 RMK AO2 T01760156
Loading
Personal Weather Stations






























Interactive Weather Map New forecast layout! Learn more

10-Day Weather Forecast

Advertisements
Track Severe Weather on mobile